sensor_id;sensor_type;location;lat;lon;timestamp;P1;durP1;ratioP1;P2;durP2;ratioP2
40907;SDS011;51055;59.436;24.778;2023-06-22T00:01:21;9.45;;;7.13;;
40907;SDS011;51055;59.436;24.778;2023-06-22T00:03:52;10.13;;;6.65;;
40907;SDS011;51055;59.436;24.778;2023-06-22T00:06:20;10.25;;;7.35;;
40907;SDS011;51055;59.436;24.778;2023-06-22T00:08:48;11.47;;;7.23;;
40907;SDS011;51055;59.436;24.778;2023-06-22T00:11:15;11.50;;;7.40;;
40907;SDS011;51055;59.436;24.778;2023-06-22T00:13:43;10.13;;;6.53;;
40907;SDS011;51055;59.436;24.778;2023-06-22T00:16:12;12.07;;;7.55;;
40907;SDS011;51055;59.436;24.778;2023-06-22T00:18:39;9.63;;;7.15;;
40907;SDS011;51055;59.436;24.778;2023-06-22T00:21:07;11.68;;;7.22;;
40907;SDS011;51055;59.436;24.778;2023-06-22T00:23:35;9.98;;;7.50;;
40907;SDS011;51055;59.436;24.778;2023-06-22T00:26:02;8.85;;;6.82;;
40907;SDS011;51055;59.436;24.778;2023-06-22T00:28:30;12.95;;;7.63;;
40907;SDS011;51055;59.436;24.778;2023-06-22T00:30:58;10.05;;;6.97;;
40907;SDS011;51055;59.436;24.778;2023-06-22T00:33:25;10.63;;;7.50;;
40907;SDS011;51055;59.436;24.778;2023-06-22T00:35:53;12.13;;;7.68;;
40907;SDS011;51055;59.436;24.778;2023-06-22T00:38:21;10.02;;;7.25;;
40907;SDS011;51055;59.436;24.778;2023-06-22T00:40:48;10.35;;;7.45;;
40907;SDS011;51055;59.436;24.778;2023-06-22T00:43:16;10.43;;;7.65;;
40907;SDS011;51055;59.436;24.778;2023-06-22T00:45:43;9.48;;;7.53;;
40907;SDS011;51055;59.436;24.778;2023-06-22T00:48:11;11.43;;;7.80;;
40907;SDS011;51055;59.436;24.778;2023-06-22T00:50:39;11.15;;;7.68;;
40907;SDS011;51055;59.436;24.778;2023-06-22T00:53:08;10.70;;;7.75;;
40907;SDS011;51055;59.436;24.778;2023-06-22T00:55:43;10.77;;;8.07;;
40907;SDS011;51055;59.436;24.778;2023-06-22T00:58:13;8.95;;;7.38;;
40907;SDS011;51055;59.436;24.778;2023-06-22T01:00:41;8.83;;;7.80;;
40907;SDS011;51055;59.436;24.778;2023-06-22T01:03:09;11.23;;;7.85;;
40907;SDS011;51055;59.436;24.778;2023-06-22T01:05:38;11.30;;;7.82;;
40907;SDS011;51055;59.436;24.778;2023-06-22T01:16:43;10.50;;;7.88;;
40907;SDS011;51055;59.436;24.778;2023-06-22T01:21:55;9.88;;;8.25;;
40907;SDS011;51055;59.436;24.778;2023-06-22T01:24:26;9.68;;;8.07;;
40907;SDS011;51055;59.436;24.778;2023-06-22T01:29:44;10.23;;;7.65;;
40907;SDS011;51055;59.436;24.778;2023-06-22T01:34:41;9.30;;;8.00;;
40907;SDS011;51055;59.436;24.778;2023-06-22T01:37:09;9.07;;;7.43;;
40907;SDS011;51055;59.436;24.778;2023-06-22T01:39:37;10.32;;;8.45;;
40907;SDS011;51055;59.436;24.778;2023-06-22T01:42:06;11.75;;;8.27;;
40907;SDS011;51055;59.436;24.778;2023-06-22T01:44:34;10.50;;;8.32;;
40907;SDS011;51055;59.436;24.778;2023-06-22T01:47:03;10.13;;;8.40;;
40907;SDS011;51055;59.436;24.778;2023-06-22T01:49:32;9.30;;;8.13;;
40907;SDS011;51055;59.436;24.778;2023-06-22T01:51:59;10.15;;;8.40;;
40907;SDS011;51055;59.436;24.778;2023-06-22T01:54:27;11.35;;;8.27;;
40907;SDS011;51055;59.436;24.778;2023-06-22T01:56:54;11.47;;;8.97;;
40907;SDS011;51055;59.436;24.778;2023-06-22T02:01:54;10.02;;;8.35;;
40907;SDS011;51055;59.436;24.778;2023-06-22T02:04:51;11.10;;;8.48;;
40907;SDS011;51055;59.436;24.778;2023-06-22T02:07:19;9.98;;;8.00;;
40907;SDS011;51055;59.436;24.778;2023-06-22T02:09:51;12.75;;;8.68;;
40907;SDS011;51055;59.436;24.778;2023-06-22T02:12:21;11.90;;;8.77;;
40907;SDS011;51055;59.436;24.778;2023-06-22T02:14:52;15.80;;;9.00;;
40907;SDS011;51055;59.436;24.778;2023-06-22T02:17:20;10.77;;;7.72;;
40907;SDS011;51055;59.436;24.778;2023-06-22T02:19:48;10.77;;;8.02;;
40907;SDS011;51055;59.436;24.778;2023-06-22T02:22:16;10.02;;;8.77;;
40907;SDS011;51055;59.436;24.778;2023-06-22T02:24:43;12.02;;;8.90;;
40907;SDS011;51055;59.436;24.778;2023-06-22T02:27:11;11.02;;;8.73;;
40907;SDS011;51055;59.436;24.778;2023-06-22T02:29:40;11.80;;;8.73;;
40907;SDS011;51055;59.436;24.778;2023-06-22T02:32:08;12.13;;;9.07;;
40907;SDS011;51055;59.436;24.778;2023-06-22T02:34:35;14.70;;;8.27;;
40907;SDS011;51055;59.436;24.778;2023-06-22T02:37:03;15.75;;;9.45;;
40907;SDS011;51055;59.436;24.778;2023-06-22T02:39:32;9.63;;;8.48;;
40907;SDS011;51055;59.436;24.778;2023-06-22T02:41:59;10.90;;;8.63;;
40907;SDS011;51055;59.436;24.778;2023-06-22T02:44:27;10.55;;;8.85;;
40907;SDS011;51055;59.436;24.778;2023-06-22T02:46:55;12.38;;;8.50;;
40907;SDS011;51055;59.436;24.778;2023-06-22T02:49:22;9.85;;;8.85;;
40907;SDS011;51055;59.436;24.778;2023-06-22T02:51:50;10.45;;;9.10;;
40907;SDS011;51055;59.436;24.778;2023-06-22T02:54:18;10.27;;;8.55;;
40907;SDS011;51055;59.436;24.778;2023-06-22T02:56:47;9.93;;;8.70;;
40907;SDS011;51055;59.436;24.778;2023-06-22T02:59:15;11.48;;;8.95;;
40907;SDS011;51055;59.436;24.778;2023-06-22T03:01:43;13.23;;;8.63;;
40907;SDS011;51055;59.436;24.778;2023-06-22T03:04:11;11.60;;;8.90;;
40907;SDS011;51055;59.436;24.778;2023-06-22T03:06:38;10.45;;;8.80;;
40907;SDS011;51055;59.436;24.778;2023-06-22T03:09:07;10.13;;;8.35;;
40907;SDS011;51055;59.436;24.778;2023-06-22T03:11:35;9.98;;;8.50;;
40907;SDS011;51055;59.436;24.778;2023-06-22T03:14:03;11.80;;;9.07;;
40907;SDS011;51055;59.436;24.778;2023-06-22T03:16:31;10.55;;;8.60;;
40907;SDS011;51055;59.436;24.778;2023-06-22T03:18:59;10.00;;;8.90;;
40907;SDS011;51055;59.436;24.778;2023-06-22T03:21:29;13.40;;;9.43;;
40907;SDS011;51055;59.436;24.778;2023-06-22T03:23:57;12.18;;;8.52;;
40907;SDS011;51055;59.436;24.778;2023-06-22T03:26:24;11.27;;;8.73;;
40907;SDS011;51055;59.436;24.778;2023-06-22T03:28:54;10.82;;;8.73;;
40907;SDS011;51055;59.436;24.778;2023-06-22T03:31:21;11.20;;;8.30;;
40907;SDS011;51055;59.436;24.778;2023-06-22T03:33:50;10.73;;;8.73;;
40907;SDS011;51055;59.436;24.778;2023-06-22T03:36:18;12.07;;;9.13;;
40907;SDS011;51055;59.436;24.778;2023-06-22T03:38:49;13.20;;;8.93;;
40907;SDS011;51055;59.436;24.778;2023-06-22T03:41:18;9.88;;;8.13;;
40907;SDS011;51055;59.436;24.778;2023-06-22T03:43:45;11.18;;;8.85;;
40907;SDS011;51055;59.436;24.778;2023-06-22T03:46:13;12.68;;;9.07;;
40907;SDS011;51055;59.436;24.778;2023-06-22T03:48:41;11.43;;;9.17;;
40907;SDS011;51055;59.436;24.778;2023-06-22T03:51:09;12.93;;;8.80;;
40907;SDS011;51055;59.436;24.778;2023-06-22T03:53:37;11.50;;;8.97;;
40907;SDS011;51055;59.436;24.778;2023-06-22T03:56:04;10.05;;;8.13;;
40907;SDS011;51055;59.436;24.778;2023-06-22T03:58:32;13.47;;;9.07;;
40907;SDS011;51055;59.436;24.778;2023-06-22T04:01:00;10.32;;;8.88;;
40907;SDS011;51055;59.436;24.778;2023-06-22T04:03:28;11.23;;;8.40;;
40907;SDS011;51055;59.436;24.778;2023-06-22T04:05:56;10.73;;;8.90;;
40907;SDS011;51055;59.436;24.778;2023-06-22T04:08:24;12.23;;;9.43;;
40907;SDS011;51055;59.436;24.778;2023-06-22T04:10:51;9.55;;;8.20;;
40907;SDS011;51055;59.436;24.778;2023-06-22T04:13:19;10.60;;;9.20;;
40907;SDS011;51055;59.436;24.778;2023-06-22T04:15:47;11.05;;;8.80;;
40907;SDS011;51055;59.436;24.778;2023-06-22T04:18:14;10.27;;;8.82;;
40907;SDS011;51055;59.436;24.778;2023-06-22T04:20:42;14.88;;;9.30;;
40907;SDS011;51055;59.436;24.778;2023-06-22T04:23:13;14.27;;;9.18;;
40907;SDS011;51055;59.436;24.778;2023-06-22T04:25:41;10.48;;;9.20;;
40907;SDS011;51055;59.436;24.778;2023-06-22T04:28:09;11.90;;;9.30;;
40907;SDS011;51055;59.436;24.778;2023-06-22T04:30:40;11.68;;;8.65;;
40907;SDS011;51055;59.436;24.778;2023-06-22T04:33:16;15.13;;;10.00;;
40907;SDS011;51055;59.436;24.778;2023-06-22T04:35:44;11.07;;;9.20;;
40907;SDS011;51055;59.436;24.778;2023-06-22T04:38:13;11.60;;;9.20;;
40907;SDS011;51055;59.436;24.778;2023-06-22T04:40:41;12.52;;;9.60;;
40907;SDS011;51055;59.436;24.778;2023-06-22T04:43:08;16.08;;;9.60;;
40907;SDS011;51055;59.436;24.778;2023-06-22T04:45:37;11.43;;;9.18;;
40907;SDS011;51055;59.436;24.778;2023-06-22T04:48:05;15.20;;;9.40;;
40907;SDS011;51055;59.436;24.778;2023-06-22T04:50:33;13.45;;;9.05;;
40907;SDS011;51055;59.436;24.778;2023-06-22T04:53:00;15.00;;;9.63;;
40907;SDS011;51055;59.436;24.778;2023-06-22T04:55:32;15.23;;;9.77;;
40907;SDS011;51055;59.436;24.778;2023-06-22T04:58:00;12.95;;;8.93;;
40907;SDS011;51055;59.436;24.778;2023-06-22T05:00:32;13.98;;;8.82;;
40907;SDS011;51055;59.436;24.778;2023-06-22T05:03:03;11.77;;;8.57;;
40907;SDS011;51055;59.436;24.778;2023-06-22T05:05:46;10.10;;;7.63;;
40907;SDS011;51055;59.436;24.778;2023-06-22T05:08:13;16.92;;;8.15;;
40907;SDS011;51055;59.436;24.778;2023-06-22T05:10:42;10.77;;;7.60;;
40907;SDS011;51055;59.436;24.778;2023-06-22T05:13:29;11.05;;;7.60;;
40907;SDS011;51055;59.436;24.778;2023-06-22T05:15:56;11.30;;;7.40;;
40907;SDS011;51055;59.436;24.778;2023-06-22T05:18:32;10.98;;;7.78;;
40907;SDS011;51055;59.436;24.778;2023-06-22T05:21:00;10.18;;;7.75;;
40907;SDS011;51055;59.436;24.778;2023-06-22T05:23:28;9.18;;;7.97;;
40907;SDS011;51055;59.436;24.778;2023-06-22T05:25:55;10.32;;;8.27;;
40907;SDS011;51055;59.436;24.778;2023-06-22T05:28:25;11.88;;;8.88;;
40907;SDS011;51055;59.436;24.778;2023-06-22T05:30:53;11.57;;;8.88;;
40907;SDS011;51055;59.436;24.778;2023-06-22T05:33:21;13.30;;;9.10;;
40907;SDS011;51055;59.436;24.778;2023-06-22T05:35:48;11.75;;;10.02;;
40907;SDS011;51055;59.436;24.778;2023-06-22T05:38:16;10.77;;;9.27;;
40907;SDS011;51055;59.436;24.778;2023-06-22T05:40:44;12.67;;;10.00;;
40907;SDS011;51055;59.436;24.778;2023-06-22T05:43:12;10.13;;;9.03;;
40907;SDS011;51055;59.436;24.778;2023-06-22T05:45:39;12.15;;;10.00;;
40907;SDS011;51055;59.436;24.778;2023-06-22T05:48:07;13.75;;;10.68;;
40907;SDS011;51055;59.436;24.778;2023-06-22T05:50:36;18.73;;;13.02;;
40907;SDS011;51055;59.436;24.778;2023-06-22T05:53:04;14.52;;;12.02;;
40907;SDS011;51055;59.436;24.778;2023-06-22T05:55:33;13.43;;;10.80;;
40907;SDS011;51055;59.436;24.778;2023-06-22T05:58:02;17.55;;;12.18;;
40907;SDS011;51055;59.436;24.778;2023-06-22T06:00:33;14.10;;;10.93;;
40907;SDS011;51055;59.436;24.778;2023-06-22T06:03:02;15.95;;;11.20;;
40907;SDS011;51055;59.436;24.778;2023-06-22T06:05:32;13.98;;;11.85;;
40907;SDS011;51055;59.436;24.778;2023-06-22T06:08:01;14.25;;;11.85;;
40907;SDS011;51055;59.436;24.778;2023-06-22T06:10:31;12.32;;;10.73;;
40907;SDS011;51055;59.436;24.778;2023-06-22T06:13:00;14.65;;;11.68;;
40907;SDS011;51055;59.436;24.778;2023-06-22T06:15:30;12.43;;;10.98;;
40907;SDS011;51055;59.436;24.778;2023-06-22T06:17:59;14.93;;;12.15;;
40907;SDS011;51055;59.436;24.778;2023-06-22T06:20:27;14.53;;;11.90;;
40907;SDS011;51055;59.436;24.778;2023-06-22T06:22:55;13.68;;;11.90;;
40907;SDS011;51055;59.436;24.778;2023-06-22T06:25:24;15.32;;;11.77;;
40907;SDS011;51055;59.436;24.778;2023-06-22T06:27:52;15.03;;;11.53;;
40907;SDS011;51055;59.436;24.778;2023-06-22T06:30:22;14.73;;;11.68;;
40907;SDS011;51055;59.436;24.778;2023-06-22T06:32:50;13.15;;;11.75;;
40907;SDS011;51055;59.436;24.778;2023-06-22T06:35:18;13.50;;;10.67;;
40907;SDS011;51055;59.436;24.778;2023-06-22T06:37:47;12.68;;;11.35;;
40907;SDS011;51055;59.436;24.778;2023-06-22T06:40:17;13.18;;;11.25;;
40907;SDS011;51055;59.436;24.778;2023-06-22T06:42:46;12.88;;;10.98;;
40907;SDS011;51055;59.436;24.778;2023-06-22T06:45:15;16.58;;;13.40;;
40907;SDS011;51055;59.436;24.778;2023-06-22T06:47:47;15.30;;;12.52;;
40907;SDS011;51055;59.436;24.778;2023-06-22T06:50:16;17.50;;;13.70;;
40907;SDS011;51055;59.436;24.778;2023-06-22T06:52:44;14.20;;;11.68;;
40907;SDS011;51055;59.436;24.778;2023-06-22T06:55:12;15.03;;;11.40;;
40907;SDS011;51055;59.436;24.778;2023-06-22T06:57:41;12.35;;;11.05;;
40907;SDS011;51055;59.436;24.778;2023-06-22T07:00:11;11.98;;;10.65;;
40907;SDS011;51055;59.436;24.778;2023-06-22T07:02:42;14.82;;;10.05;;
40907;SDS011;51055;59.436;24.778;2023-06-22T07:05:11;12.60;;;9.82;;
40907;SDS011;51055;59.436;24.778;2023-06-22T07:07:40;12.02;;;10.63;;
40907;SDS011;51055;59.436;24.778;2023-06-22T07:10:09;13.82;;;11.18;;
40907;SDS011;51055;59.436;24.778;2023-06-22T07:15:06;11.98;;;10.00;;
40907;SDS011;51055;59.436;24.778;2023-06-22T07:17:39;11.18;;;9.98;;
40907;SDS011;51055;59.436;24.778;2023-06-22T07:20:09;14.23;;;11.32;;
40907;SDS011;51055;59.436;24.778;2023-06-22T07:22:40;12.30;;;11.00;;
40907;SDS011;51055;59.436;24.778;2023-06-22T07:25:10;15.63;;;12.48;;
40907;SDS011;51055;59.436;24.778;2023-06-22T07:28:01;12.52;;;11.05;;
40907;SDS011;51055;59.436;24.778;2023-06-22T07:30:31;14.55;;;12.75;;
40907;SDS011;51055;59.436;24.778;2023-06-22T07:33:00;12.63;;;11.32;;
40907;SDS011;51055;59.436;24.778;2023-06-22T07:35:35;13.60;;;11.68;;
40907;SDS011;51055;59.436;24.778;2023-06-22T07:38:03;12.60;;;11.13;;
40907;SDS011;51055;59.436;24.778;2023-06-22T07:40:33;13.02;;;11.73;;
40907;SDS011;51055;59.436;24.778;2023-06-22T07:43:02;12.25;;;10.98;;
40907;SDS011;51055;59.436;24.778;2023-06-22T07:45:30;14.32;;;11.85;;
40907;SDS011;51055;59.436;24.778;2023-06-22T07:48:01;13.18;;;11.88;;
40907;SDS011;51055;59.436;24.778;2023-06-22T07:50:29;13.60;;;12.18;;
40907;SDS011;51055;59.436;24.778;2023-06-22T07:52:57;13.98;;;12.57;;
40907;SDS011;51055;59.436;24.778;2023-06-22T07:55:26;13.23;;;11.85;;
40907;SDS011;51055;59.436;24.778;2023-06-22T07:57:54;13.48;;;11.65;;
40907;SDS011;51055;59.436;24.778;2023-06-22T08:00:22;13.73;;;12.23;;
40907;SDS011;51055;59.436;24.778;2023-06-22T08:02:50;13.52;;;12.07;;
40907;SDS011;51055;59.436;24.778;2023-06-22T08:05:18;13.93;;;12.32;;
40907;SDS011;51055;59.436;24.778;2023-06-22T08:07:49;14.05;;;12.55;;
40907;SDS011;51055;59.436;24.778;2023-06-22T08:10:17;14.38;;;12.60;;
40907;SDS011;51055;59.436;24.778;2023-06-22T08:15:13;13.85;;;12.40;;
40907;SDS011;51055;59.436;24.778;2023-06-22T08:17:40;13.93;;;12.48;;
40907;SDS011;51055;59.436;24.778;2023-06-22T08:20:08;13.43;;;12.02;;
40907;SDS011;51055;59.436;24.778;2023-06-22T08:22:38;14.85;;;13.27;;
40907;SDS011;51055;59.436;24.778;2023-06-22T08:25:06;14.85;;;13.30;;
40907;SDS011;51055;59.436;24.778;2023-06-22T08:27:35;13.88;;;12.48;;
40907;SDS011;51055;59.436;24.778;2023-06-22T08:30:03;13.75;;;12.43;;
40907;SDS011;51055;59.436;24.778;2023-06-22T08:32:31;14.77;;;13.32;;
40907;SDS011;51055;59.436;24.778;2023-06-22T08:37:28;15.57;;;14.02;;
40907;SDS011;51055;59.436;24.778;2023-06-22T08:39:59;15.02;;;13.45;;
40907;SDS011;51055;59.436;24.778;2023-06-22T08:42:28;16.58;;;14.90;;
40907;SDS011;51055;59.436;24.778;2023-06-22T08:44:56;15.68;;;14.07;;
40907;SDS011;51055;59.436;24.778;2023-06-22T08:47:24;16.45;;;14.75;;
40907;SDS011;51055;59.436;24.778;2023-06-22T08:49:52;15.57;;;14.07;;
40907;SDS011;51055;59.436;24.778;2023-06-22T08:52:19;15.43;;;13.82;;
40907;SDS011;51055;59.436;24.778;2023-06-22T08:54:47;16.52;;;14.32;;
40907;SDS011;51055;59.436;24.778;2023-06-22T08:57:15;16.05;;;14.35;;
40907;SDS011;51055;59.436;24.778;2023-06-22T08:59:43;15.63;;;14.13;;
40907;SDS011;51055;59.436;24.778;2023-06-22T09:02:11;15.93;;;14.33;;
40907;SDS011;51055;59.436;24.778;2023-06-22T09:04:39;15.82;;;14.32;;
40907;SDS011;51055;59.436;24.778;2023-06-22T09:07:06;14.52;;;13.13;;
40907;SDS011;51055;59.436;24.778;2023-06-22T09:09:34;16.63;;;14.80;;
40907;SDS011;51055;59.436;24.778;2023-06-22T09:12:02;15.77;;;13.80;;
40907;SDS011;51055;59.436;24.778;2023-06-22T09:14:30;14.32;;;12.93;;
40907;SDS011;51055;59.436;24.778;2023-06-22T09:16:58;16.63;;;15.02;;
40907;SDS011;51055;59.436;24.778;2023-06-22T09:19:25;15.88;;;14.25;;
40907;SDS011;51055;59.436;24.778;2023-06-22T09:21:53;19.90;;;16.83;;
40907;SDS011;51055;59.436;24.778;2023-06-22T09:24:21;17.17;;;15.47;;
40907;SDS011;51055;59.436;24.778;2023-06-22T09:26:49;15.50;;;14.00;;
40907;SDS011;51055;59.436;24.778;2023-06-22T09:29:17;21.02;;;16.67;;
40907;SDS011;51055;59.436;24.778;2023-06-22T09:31:45;17.40;;;15.20;;
40907;SDS011;51055;59.436;24.778;2023-06-22T09:34:13;16.87;;;15.27;;
40907;SDS011;51055;59.436;24.778;2023-06-22T09:36:41;17.65;;;15.85;;
40907;SDS011;51055;59.436;24.778;2023-06-22T09:39:08;19.67;;;17.42;;
40907;SDS011;51055;59.436;24.778;2023-06-22T09:41:36;17.33;;;15.60;;
40907;SDS011;51055;59.436;24.778;2023-06-22T09:44:03;17.27;;;15.48;;
40907;SDS011;51055;59.436;24.778;2023-06-22T09:46:31;17.50;;;15.80;;
40907;SDS011;51055;59.436;24.778;2023-06-22T09:50:58;17.02;;;15.35;;
40907;SDS011;51055;59.436;24.778;2023-06-22T09:53:26;17.27;;;15.53;;
40907;SDS011;51055;59.436;24.778;2023-06-22T09:55:53;18.23;;;16.47;;
40907;SDS011;51055;59.436;24.778;2023-06-22T09:58:21;18.20;;;16.33;;
40907;SDS011;51055;59.436;24.778;2023-06-22T10:00:49;17.30;;;15.53;;
40907;SDS011;51055;59.436;24.778;2023-06-22T10:03:17;17.13;;;15.50;;
40907;SDS011;51055;59.436;24.778;2023-06-22T10:05:45;17.80;;;16.10;;
40907;SDS011;51055;59.436;24.778;2023-06-22T10:08:13;17.67;;;15.98;;
40907;SDS011;51055;59.436;24.778;2023-06-22T10:10:41;17.33;;;15.57;;
40907;SDS011;51055;59.436;24.778;2023-06-22T10:13:09;18.48;;;16.67;;
40907;SDS011;51055;59.436;24.778;2023-06-22T10:15:38;17.63;;;15.93;;
40907;SDS011;51055;59.436;24.778;2023-06-22T10:18:06;20.50;;;18.50;;
40907;SDS011;51055;59.436;24.778;2023-06-22T10:20:33;21.02;;;19.02;;
40907;SDS011;51055;59.436;24.778;2023-06-22T10:23:01;20.33;;;18.27;;
40907;SDS011;51055;59.436;24.778;2023-06-22T10:25:29;21.90;;;19.70;;
40907;SDS011;51055;59.436;24.778;2023-06-22T10:27:57;21.60;;;19.50;;
40907;SDS011;51055;59.436;24.778;2023-06-22T10:30:25;22.92;;;20.58;;
40907;SDS011;51055;59.436;24.778;2023-06-22T10:32:52;23.47;;;21.20;;
40907;SDS011;51055;59.436;24.778;2023-06-22T10:35:20;23.83;;;21.52;;
40907;SDS011;51055;59.436;24.778;2023-06-22T10:37:48;26.50;;;23.88;;
40907;SDS011;51055;59.436;24.778;2023-06-22T10:40:16;24.75;;;22.45;;
40907;SDS011;51055;59.436;24.778;2023-06-22T10:42:46;26.55;;;23.90;;
40907;SDS011;51055;59.436;24.778;2023-06-22T10:45:13;25.02;;;22.73;;
40907;SDS011;51055;59.436;24.778;2023-06-22T10:47:41;22.88;;;20.65;;
40907;SDS011;51055;59.436;24.778;2023-06-22T10:50:10;21.38;;;19.20;;
40907;SDS011;51055;59.436;24.778;2023-06-22T10:52:38;21.58;;;19.58;;
40907;SDS011;51055;59.436;24.778;2023-06-22T10:55:06;18.85;;;16.95;;
40907;SDS011;51055;59.436;24.778;2023-06-22T11:00:04;21.17;;;19.08;;
40907;SDS011;51055;59.436;24.778;2023-06-22T11:02:33;20.63;;;18.48;;
40907;SDS011;51055;59.436;24.778;2023-06-22T11:05:01;19.67;;;17.67;;
40907;SDS011;51055;59.436;24.778;2023-06-22T11:07:30;19.42;;;17.52;;
40907;SDS011;51055;59.436;24.778;2023-06-22T11:09:58;18.85;;;16.10;;
40907;SDS011;51055;59.436;24.778;2023-06-22T11:12:26;17.63;;;15.73;;
40907;SDS011;51055;59.436;24.778;2023-06-22T11:14:54;17.08;;;14.50;;
40907;SDS011;51055;59.436;24.778;2023-06-22T11:17:25;18.08;;;16.17;;
40907;SDS011;51055;59.436;24.778;2023-06-22T11:19:53;16.10;;;14.37;;
40907;SDS011;51055;59.436;24.778;2023-06-22T11:22:21;16.80;;;15.02;;
40907;SDS011;51055;59.436;24.778;2023-06-22T11:24:49;14.73;;;13.07;;
40907;SDS011;51055;59.436;24.778;2023-06-22T11:27:17;16.20;;;14.60;;
40907;SDS011;51055;59.436;24.778;2023-06-22T11:29:44;15.47;;;13.90;;
40907;SDS011;51055;59.436;24.778;2023-06-22T11:32:12;14.45;;;13.05;;
40907;SDS011;51055;59.436;24.778;2023-06-22T11:34:41;15.27;;;13.57;;
40907;SDS011;51055;59.436;24.778;2023-06-22T11:37:09;17.50;;;12.73;;
40907;SDS011;51055;59.436;24.778;2023-06-22T11:39:36;14.23;;;12.73;;
40907;SDS011;51055;59.436;24.778;2023-06-22T11:42:13;44.05;;;16.98;;
40907;SDS011;51055;59.436;24.778;2023-06-22T11:44:41;31.10;;;16.20;;
40907;SDS011;51055;59.436;24.778;2023-06-22T11:47:09;27.77;;;15.05;;
40907;SDS011;51055;59.436;24.778;2023-06-22T11:49:37;14.95;;;13.35;;
40907;SDS011;51055;59.436;24.778;2023-06-22T11:52:05;16.70;;;15.00;;
40907;SDS011;51055;59.436;24.778;2023-06-22T11:54:33;17.48;;;15.43;;
40907;SDS011;51055;59.436;24.778;2023-06-22T11:57:01;15.57;;;13.47;;
40907;SDS011;51055;59.436;24.778;2023-06-22T11:59:29;14.20;;;12.70;;
40907;SDS011;51055;59.436;24.778;2023-06-22T12:01:57;14.13;;;12.73;;
40907;SDS011;51055;59.436;24.778;2023-06-22T12:04:25;15.65;;;14.05;;
40907;SDS011;51055;59.436;24.778;2023-06-22T12:06:53;14.68;;;12.95;;
40907;SDS011;51055;59.436;24.778;2023-06-22T12:09:21;14.50;;;12.10;;
40907;SDS011;51055;59.436;24.778;2023-06-22T12:11:49;15.95;;;12.98;;
40907;SDS011;51055;59.436;24.778;2023-06-22T12:14:16;14.52;;;13.02;;
40907;SDS011;51055;59.436;24.778;2023-06-22T12:16:44;14.30;;;12.80;;
40907;SDS011;51055;59.436;24.778;2023-06-22T12:19:11;15.35;;;12.90;;
40907;SDS011;51055;59.436;24.778;2023-06-22T12:21:39;12.35;;;11.05;;
40907;SDS011;51055;59.436;24.778;2023-06-22T12:24:08;12.73;;;11.20;;
40907;SDS011;51055;59.436;24.778;2023-06-22T12:26:36;13.18;;;11.80;;
40907;SDS011;51055;59.436;24.778;2023-06-22T12:29:03;12.50;;;10.33;;
40907;SDS011;51055;59.436;24.778;2023-06-22T12:31:31;13.20;;;11.80;;
40907;SDS011;51055;59.436;24.778;2023-06-22T12:33:59;12.77;;;10.93;;
40907;SDS011;51055;59.436;24.778;2023-06-22T12:36:27;13.38;;;11.10;;
40907;SDS011;51055;59.436;24.778;2023-06-22T12:38:54;10.70;;;9.60;;
40907;SDS011;51055;59.436;24.778;2023-06-22T12:41:22;13.02;;;10.82;;
40907;SDS011;51055;59.436;24.778;2023-06-22T12:43:50;14.38;;;10.50;;
40907;SDS011;51055;59.436;24.778;2023-06-22T12:46:17;14.20;;;12.13;;
40907;SDS011;51055;59.436;24.778;2023-06-22T12:48:45;13.25;;;11.80;;
40907;SDS011;51055;59.436;24.778;2023-06-22T12:51:19;17.20;;;12.60;;
40907;SDS011;51055;59.436;24.778;2023-06-22T12:53:48;13.45;;;10.93;;
40907;SDS011;51055;59.436;24.778;2023-06-22T12:56:16;12.52;;;11.18;;
40907;SDS011;51055;59.436;24.778;2023-06-22T12:58:44;12.52;;;10.82;;
40907;SDS011;51055;59.436;24.778;2023-06-22T13:01:12;12.25;;;10.32;;
40907;SDS011;51055;59.436;24.778;2023-06-22T13:03:41;12.55;;;10.20;;
40907;SDS011;51055;59.436;24.778;2023-06-22T13:06:09;11.85;;;9.75;;
40907;SDS011;51055;59.436;24.778;2023-06-22T13:08:37;11.65;;;10.23;;
40907;SDS011;51055;59.436;24.778;2023-06-22T13:11:24;11.05;;;9.88;;
40907;SDS011;51055;59.436;24.778;2023-06-22T13:13:52;14.20;;;10.02;;
40907;SDS011;51055;59.436;24.778;2023-06-22T13:16:19;13.20;;;10.88;;
40907;SDS011;51055;59.436;24.778;2023-06-22T13:18:47;13.50;;;11.15;;
40907;SDS011;51055;59.436;24.778;2023-06-22T13:21:14;14.75;;;11.65;;
40907;SDS011;51055;59.436;24.778;2023-06-22T13:23:42;14.82;;;12.10;;
40907;SDS011;51055;59.436;24.778;2023-06-22T13:26:10;42.00;;;13.82;;
40907;SDS011;51055;59.436;24.778;2023-06-22T13:28:37;15.38;;;12.25;;
40907;SDS011;51055;59.436;24.778;2023-06-22T13:31:05;13.05;;;11.65;;
40907;SDS011;51055;59.436;24.778;2023-06-22T13:33:33;12.97;;;11.53;;
40907;SDS011;51055;59.436;24.778;2023-06-22T13:36:01;15.88;;;12.52;;
40907;SDS011;51055;59.436;24.778;2023-06-22T13:38:31;13.40;;;11.50;;
40907;SDS011;51055;59.436;24.778;2023-06-22T13:40:59;13.73;;;12.27;;
40907;SDS011;51055;59.436;24.778;2023-06-22T13:43:27;14.43;;;11.43;;
40907;SDS011;51055;59.436;24.778;2023-06-22T13:45:55;12.23;;;10.93;;
40907;SDS011;51055;59.436;24.778;2023-06-22T13:48:23;12.50;;;11.20;;
40907;SDS011;51055;59.436;24.778;2023-06-22T13:50:53;14.52;;;11.25;;
40907;SDS011;51055;59.436;24.778;2023-06-22T13:53:20;12.32;;;10.57;;
40907;SDS011;51055;59.436;24.778;2023-06-22T13:55:48;11.98;;;10.02;;
40907;SDS011;51055;59.436;24.778;2023-06-22T13:58:15;14.40;;;9.93;;
40907;SDS011;51055;59.436;24.778;2023-06-22T14:00:43;11.68;;;10.13;;
40907;SDS011;51055;59.436;24.778;2023-06-22T14:03:12;17.95;;;10.13;;
40907;SDS011;51055;59.436;24.778;2023-06-22T14:05:43;11.43;;;9.50;;
40907;SDS011;51055;59.436;24.778;2023-06-22T14:08:11;11.18;;;9.35;;
40907;SDS011;51055;59.436;24.778;2023-06-22T14:10:58;11.27;;;9.60;;
40907;SDS011;51055;59.436;24.778;2023-06-22T14:13:26;11.27;;;8.80;;
40907;SDS011;51055;59.436;24.778;2023-06-22T14:15:54;12.10;;;10.17;;
40907;SDS011;51055;59.436;24.778;2023-06-22T14:18:22;12.73;;;10.07;;
40907;SDS011;51055;59.436;24.778;2023-06-22T14:20:49;13.25;;;11.75;;
40907;SDS011;51055;59.436;24.778;2023-06-22T14:23:17;12.50;;;10.43;;
40907;SDS011;51055;59.436;24.778;2023-06-22T14:25:45;17.33;;;13.25;;
40907;SDS011;51055;59.436;24.778;2023-06-22T14:28:13;19.98;;;16.75;;
40907;SDS011;51055;59.436;24.778;2023-06-22T14:30:40;21.98;;;16.50;;
40907;SDS011;51055;59.436;24.778;2023-06-22T14:33:08;19.25;;;16.95;;
40907;SDS011;51055;59.436;24.778;2023-06-22T14:35:36;19.70;;;17.03;;
40907;SDS011;51055;59.436;24.778;2023-06-22T14:38:04;16.42;;;14.68;;
40907;SDS011;51055;59.436;24.778;2023-06-22T14:40:31;17.17;;;14.60;;
40907;SDS011;51055;59.436;24.778;2023-06-22T14:43:14;19.15;;;15.82;;
40907;SDS011;51055;59.436;24.778;2023-06-22T14:45:42;15.70;;;12.57;;
40907;SDS011;51055;59.436;24.778;2023-06-22T14:48:10;16.80;;;14.02;;
40907;SDS011;51055;59.436;24.778;2023-06-22T14:50:37;14.57;;;12.23;;
40907;SDS011;51055;59.436;24.778;2023-06-22T14:53:05;14.45;;;12.60;;